sensor_id;sensor_type;location;lat;lon;timestamp;pressure;altitude;pressure_sealevel;temperature;humidity
62928;BME280;51070;52.236;-0.892;2023-08-01T00:00:39;99124.23;;;15.26;95.44
62928;BME280;51070;52.236;-0.892;2023-08-01T00:03:04;99121.13;;;15.24;95.80
62928;BME280;51070;52.236;-0.892;2023-08-01T00:05:30;99119.43;;;15.20;95.93
62928;BME280;51070;52.236;-0.892;2023-08-01T00:07:55;99117.70;;;15.18;96.11
62928;BME280;51070;52.236;-0.892;2023-08-01T00:10:21;99118.79;;;15.16;96.01
62928;BME280;51070;52.236;-0.892;2023-08-01T00:12:46;99121.42;;;15.13;95.99
62928;BME280;51070;52.236;-0.892;2023-08-01T00:15:11;99125.30;;;15.10;96.03
62928;BME280;51070;52.236;-0.892;2023-08-01T00:17:37;99123.74;;;15.08;96.15
62928;BME280;51070;52.236;-0.892;2023-08-01T00:20:03;99125.48;;;15.07;96.33
62928;BME280;51070;52.236;-0.892;2023-08-01T00:22:29;99126.02;;;15.07;96.15
62928;BME280;51070;52.236;-0.892;2023-08-01T00:24:55;99130.73;;;15.06;96.23
62928;BME280;51070;52.236;-0.892;2023-08-01T00:27:20;99129.89;;;15.05;96.39
62928;BME280;51070;52.236;-0.892;2023-08-01T00:29:45;99130.92;;;15.05;96.29
62928;BME280;51070;52.236;-0.892;2023-08-01T00:32:11;99132.33;;;15.04;96.18
62928;BME280;51070;52.236;-0.892;2023-08-01T00:34:37;99134.09;;;15.01;96.35
62928;BME280;51070;52.236;-0.892;2023-08-01T00:37:03;99135.52;;;14.99;96.46
62928;BME280;51070;52.236;-0.892;2023-08-01T00:39:28;99138.29;;;14.99;96.39
62928;BME280;51070;52.236;-0.892;2023-08-01T00:41:54;99147.34;;;14.99;96.55
62928;BME280;51070;52.236;-0.892;2023-08-01T00:44:19;99145.08;;;14.99;96.48
62928;BME280;51070;52.236;-0.892;2023-08-01T00:46:45;99147.69;;;14.99;96.50
62928;BME280;51070;52.236;-0.892;2023-08-01T00:49:10;99149.58;;;15.00;96.64
62928;BME280;51070;52.236;-0.892;2023-08-01T00:51:36;99146.95;;;15.02;96.58
62928;BME280;51070;52.236;-0.892;2023-08-01T00:54:02;99139.11;;;15.02;96.61
62928;BME280;51070;52.236;-0.892;2023-08-01T00:56:27;99145.75;;;15.00;96.51
62928;BME280;51070;52.236;-0.892;2023-08-01T00:58:53;99141.77;;;14.98;96.67
62928;BME280;51070;52.236;-0.892;2023-08-01T01:01:18;99140.90;;;14.98;96.83
62928;BME280;51070;52.236;-0.892;2023-08-01T01:03:44;99139.33;;;15.00;96.83
62928;BME280;51070;52.236;-0.892;2023-08-01T01:06:13;99141.55;;;15.01;96.83
62928;BME280;51070;52.236;-0.892;2023-08-01T01:08:47;99133.20;;;15.02;96.98
62928;BME280;51070;52.236;-0.892;2023-08-01T01:11:13;99137.36;;;15.04;97.22
62928;BME280;51070;52.236;-0.892;2023-08-01T01:13:38;99137.86;;;15.06;96.92
62928;BME280;51070;52.236;-0.892;2023-08-01T01:16:04;99135.79;;;15.05;96.97
62928;BME280;51070;52.236;-0.892;2023-08-01T01:18:30;99135.61;;;15.05;96.93
62928;BME280;51070;52.236;-0.892;2023-08-01T01:20:55;99131.10;;;15.05;96.82
62928;BME280;51070;52.236;-0.892;2023-08-01T01:23:21;99128.83;;;15.05;96.89
62928;BME280;51070;52.236;-0.892;2023-08-01T01:25:49;99127.76;;;15.06;96.55
62928;BME280;51070;52.236;-0.892;2023-08-01T01:28:15;99131.77;;;15.06;96.38
62928;BME280;51070;52.236;-0.892;2023-08-01T01:30:42;99132.15;;;15.04;96.48
62928;BME280;51070;52.236;-0.892;2023-08-01T01:33:09;99137.55;;;15.02;96.43
62928;BME280;51070;52.236;-0.892;2023-08-01T01:35:35;99137.08;;;15.00;96.62
62928;BME280;51070;52.236;-0.892;2023-08-01T01:38:01;99134.30;;;14.98;96.48
62928;BME280;51070;52.236;-0.892;2023-08-01T01:40:33;99140.04;;;14.98;96.69
62928;BME280;51070;52.236;-0.892;2023-08-01T01:42:59;99140.05;;;14.96;96.73
62928;BME280;51070;52.236;-0.892;2023-08-01T01:45:25;99143.05;;;14.93;96.71
62928;BME280;51070;52.236;-0.892;2023-08-01T01:47:51;99146.21;;;14.90;96.76
62928;BME280;51070;52.236;-0.892;2023-08-01T01:50:17;99142.41;;;14.87;96.86
62928;BME280;51070;52.236;-0.892;2023-08-01T01:52:43;99146.07;;;14.86;96.87
62928;BME280;51070;52.236;-0.892;2023-08-01T01:55:09;99147.66;;;14.84;97.07
62928;BME280;51070;52.236;-0.892;2023-08-01T01:57:35;99147.98;;;14.85;96.98
62928;BME280;51070;52.236;-0.892;2023-08-01T02:00:03;99147.81;;;14.85;96.87
62928;BME280;51070;52.236;-0.892;2023-08-01T02:02:29;99148.20;;;14.83;96.77
62928;BME280;51070;52.236;-0.892;2023-08-01T02:04:54;99149.08;;;14.82;96.85
62928;BME280;51070;52.236;-0.892;2023-08-01T02:07:19;99150.49;;;14.79;96.84
62928;BME280;51070;52.236;-0.892;2023-08-01T02:09:45;99146.69;;;14.77;96.81
62928;BME280;51070;52.236;-0.892;2023-08-01T02:12:11;99145.13;;;14.76;96.92
62928;BME280;51070;52.236;-0.892;2023-08-01T02:14:39;99146.70;;;14.76;97.03
62928;BME280;51070;52.236;-0.892;2023-08-01T02:17:05;99147.21;;;14.76;96.82
62928;BME280;51070;52.236;-0.892;2023-08-01T02:19:30;99147.92;;;14.75;96.78
62928;BME280;51070;52.236;-0.892;2023-08-01T02:21:56;99144.27;;;14.75;96.85
62928;BME280;51070;52.236;-0.892;2023-08-01T02:24:21;99146.40;;;14.72;96.98
62928;BME280;51070;52.236;-0.892;2023-08-01T02:26:47;99143.63;;;14.69;96.80
62928;BME280;51070;52.236;-0.892;2023-08-01T02:29:13;99141.41;;;14.67;96.96
62928;BME280;51070;52.236;-0.892;2023-08-01T02:31:38;99135.15;;;14.64;96.90
62928;BME280;51070;52.236;-0.892;2023-08-01T02:34:03;99133.63;;;14.62;97.04
62928;BME280;51070;52.236;-0.892;2023-08-01T02:36:29;99132.06;;;14.61;97.10
62928;BME280;51070;52.236;-0.892;2023-08-01T02:38:54;99135.90;;;14.60;97.16
62928;BME280;51070;52.236;-0.892;2023-08-01T02:41:19;99136.43;;;14.58;97.25
62928;BME280;51070;52.236;-0.892;2023-08-01T02:43:45;99136.63;;;14.57;97.41
62928;BME280;51070;52.236;-0.892;2023-08-01T02:46:10;99141.29;;;14.58;97.38
62928;BME280;51070;52.236;-0.892;2023-08-01T02:48:35;99137.66;;;14.57;97.09
62928;BME280;51070;52.236;-0.892;2023-08-01T02:51:01;99142.72;;;14.56;97.11
62928;BME280;51070;52.236;-0.892;2023-08-01T02:53:27;99142.55;;;14.54;97.19
62928;BME280;51070;52.236;-0.892;2023-08-01T02:55:53;99140.30;;;14.53;97.33
62928;BME280;51070;52.236;-0.892;2023-08-01T02:58:18;99139.25;;;14.53;97.29
62928;BME280;51070;52.236;-0.892;2023-08-01T03:00:43;99138.59;;;14.51;97.23
62928;BME280;51070;52.236;-0.892;2023-08-01T03:03:09;99137.73;;;14.51;97.09
62928;BME280;51070;52.236;-0.892;2023-08-01T03:05:37;99139.29;;;14.50;97.27
62928;BME280;51070;52.236;-0.892;2023-08-01T03:08:03;99133.20;;;14.50;97.14
62928;BME280;51070;52.236;-0.892;2023-08-01T03:10:29;99133.21;;;14.49;97.43
62928;BME280;51070;52.236;-0.892;2023-08-01T03:12:54;99141.02;;;14.50;97.29
62928;BME280;51070;52.236;-0.892;2023-08-01T03:15:20;99141.73;;;14.48;97.03
62928;BME280;51070;52.236;-0.892;2023-08-01T03:17:45;99139.48;;;14.47;97.12
62928;BME280;51070;52.236;-0.892;2023-08-01T03:20:11;99136.73;;;14.46;97.19
62928;BME280;51070;52.236;-0.892;2023-08-01T03:22:40;99138.98;;;14.44;97.03
62928;BME280;51070;52.236;-0.892;2023-08-01T03:25:05;99139.52;;;14.43;96.85
62928;BME280;51070;52.236;-0.892;2023-08-01T03:27:33;99142.16;;;14.39;96.75
62928;BME280;51070;52.236;-0.892;2023-08-01T03:29:59;99136.95;;;14.37;96.91
62928;BME280;51070;52.236;-0.892;2023-08-01T03:32:25;99133.48;;;14.34;97.06
62928;BME280;51070;52.236;-0.892;2023-08-01T03:34:50;99131.05;;;14.31;96.93
62928;BME280;51070;52.236;-0.892;2023-08-01T03:37:16;99134.38;;;14.30;97.20
62928;BME280;51070;52.236;-0.892;2023-08-01T03:39:42;99135.62;;;14.29;97.12
62928;BME280;51070;52.236;-0.892;2023-08-01T03:42:07;99142.75;;;14.29;97.24
62928;BME280;51070;52.236;-0.892;2023-08-01T03:44:33;99141.70;;;14.27;96.97
62928;BME280;51070;52.236;-0.892;2023-08-01T03:46:59;99141.17;;;14.26;96.90
62928;BME280;51070;52.236;-0.892;2023-08-01T03:49:25;99135.48;;;14.24;96.90
62928;BME280;51070;52.236;-0.892;2023-08-01T03:51:50;99137.56;;;14.24;96.96
62928;BME280;51070;52.236;-0.892;2023-08-01T03:54:15;99135.14;;;14.22;96.87
62928;BME280;51070;52.236;-0.892;2023-08-01T03:56:41;99139.83;;;14.21;97.05
62928;BME280;51070;52.236;-0.892;2023-08-01T03:59:11;99140.70;;;14.22;97.01
62928;BME280;51070;52.236;-0.892;2023-08-01T04:01:36;99141.73;;;14.23;96.99
62928;BME280;51070;52.236;-0.892;2023-08-01T04:04:02;99147.45;;;14.25;97.18
62928;BME280;51070;52.236;-0.892;2023-08-01T04:06:27;99149.86;;;14.28;97.23
62928;BME280;51070;52.236;-0.892;2023-08-01T04:08:53;99145.14;;;14.31;96.91
62928;BME280;51070;52.236;-0.892;2023-08-01T04:11:19;99139.73;;;14.35;97.00
62928;BME280;51070;52.236;-0.892;2023-08-01T04:13:44;99145.46;;;14.37;96.57
62928;BME280;51070;52.236;-0.892;2023-08-01T04:16:09;99145.81;;;14.38;96.34
62928;BME280;51070;52.236;-0.892;2023-08-01T04:18:35;99141.30;;;14.38;96.32
62928;BME280;51070;52.236;-0.892;2023-08-01T04:21:00;99144.08;;;14.39;95.98
62928;BME280;51070;52.236;-0.892;2023-08-01T04:23:25;99146.34;;;14.38;96.12
62928;BME280;51070;52.236;-0.892;2023-08-01T04:25:51;99145.29;;;14.40;96.03
62928;BME280;51070;52.236;-0.892;2023-08-01T04:28:16;99143.03;;;14.41;96.00
62928;BME280;51070;52.236;-0.892;2023-08-01T04:30:42;99147.52;;;14.42;95.94
62928;BME280;51070;52.236;-0.892;2023-08-01T04:33:07;99152.20;;;14.44;95.90
62928;BME280;51070;52.236;-0.892;2023-08-01T04:35:32;99151.85;;;14.45;95.39
62928;BME280;51070;52.236;-0.892;2023-08-01T04:37:58;99153.58;;;14.46;95.29
62928;BME280;51070;52.236;-0.892;2023-08-01T04:40:23;99152.51;;;14.47;95.05
62928;BME280;51070;52.236;-0.892;2023-08-01T04:42:48;99147.12;;;14.48;94.85
62928;BME280;51070;52.236;-0.892;2023-08-01T04:45:14;99148.68;;;14.50;94.78
62928;BME280;51070;52.236;-0.892;2023-08-01T04:47:39;99154.20;;;14.54;94.76
62928;BME280;51070;52.236;-0.892;2023-08-01T04:50:05;99154.50;;;14.59;94.52
62928;BME280;51070;52.236;-0.892;2023-08-01T04:52:31;99158.66;;;14.62;94.30
62928;BME280;51070;52.236;-0.892;2023-08-01T04:54:56;99161.75;;;14.65;94.14
62928;BME280;51070;52.236;-0.892;2023-08-01T04:57:21;99163.48;;;14.67;93.94
62928;BME280;51070;52.236;-0.892;2023-08-01T04:59:47;99159.47;;;14.67;93.47
62928;BME280;51070;52.236;-0.892;2023-08-01T05:02:12;99156.52;;;14.66;93.54
62928;BME280;51070;52.236;-0.892;2023-08-01T05:04:37;99159.31;;;14.66;93.37
62928;BME280;51070;52.236;-0.892;2023-08-01T05:07:03;99161.77;;;14.63;93.05
62928;BME280;51070;52.236;-0.892;2023-08-01T05:09:32;99162.30;;;14.62;93.12
62928;BME280;51070;52.236;-0.892;2023-08-01T05:11:57;99163.19;;;14.61;93.14
62928;BME280;51070;52.236;-0.892;2023-08-01T05:14:23;99163.70;;;14.60;92.83
62928;BME280;51070;52.236;-0.892;2023-08-01T05:16:48;99170.66;;;14.59;92.90
62928;BME280;51070;52.236;-0.892;2023-08-01T05:19:13;99173.10;;;14.58;92.85
62928;BME280;51070;52.236;-0.892;2023-08-01T05:21:38;99177.48;;;14.55;92.53
62928;BME280;51070;52.236;-0.892;2023-08-01T05:24:04;99174.55;;;14.52;92.37
62928;BME280;51070;52.236;-0.892;2023-08-01T05:26:29;99168.84;;;14.49;92.41
62928;BME280;51070;52.236;-0.892;2023-08-01T05:28:55;99175.97;;;14.49;92.52
62928;BME280;51070;52.236;-0.892;2023-08-01T05:31:20;99171.79;;;14.50;92.20
62928;BME280;51070;52.236;-0.892;2023-08-01T05:33:45;99172.27;;;14.53;92.11
62928;BME280;51070;52.236;-0.892;2023-08-01T05:36:11;99175.21;;;14.57;91.98
62928;BME280;51070;52.236;-0.892;2023-08-01T05:38:36;99179.17;;;14.61;91.84
62928;BME280;51070;52.236;-0.892;2023-08-01T05:41:01;99179.65;;;14.66;91.84
62928;BME280;51070;52.236;-0.892;2023-08-01T05:43:27;99179.26;;;14.70;91.35
62928;BME280;51070;52.236;-0.892;2023-08-01T05:45:52;99184.09;;;14.75;91.27
62928;BME280;51070;52.236;-0.892;2023-08-01T05:48:18;99183.69;;;14.81;90.65
62928;BME280;51070;52.236;-0.892;2023-08-01T05:50:43;99185.03;;;14.86;90.54
62928;BME280;51070;52.236;-0.892;2023-08-01T05:53:08;99190.88;;;14.93;90.00
62928;BME280;51070;52.236;-0.892;2023-08-01T05:55:34;99193.60;;;14.98;89.66
62928;BME280;51070;52.236;-0.892;2023-08-01T05:57:59;99191.10;;;15.05;89.26
62928;BME280;51070;52.236;-0.892;2023-08-01T06:00:25;99197.50;;;15.10;88.75
62928;BME280;51070;52.236;-0.892;2023-08-01T06:02:50;99193.52;;;15.09;88.58
62928;BME280;51070;52.236;-0.892;2023-08-01T06:05:15;99197.72;;;15.05;88.63
62928;BME280;51070;52.236;-0.892;2023-08-01T06:07:41;99199.99;;;15.03;88.80
62928;BME280;51070;52.236;-0.892;2023-08-01T06:10:07;99205.23;;;15.02;89.02
62928;BME280;51070;52.236;-0.892;2023-08-01T06:12:33;99209.21;;;15.02;88.90
62928;BME280;51070;52.236;-0.892;2023-08-01T06:14:58;99205.73;;;15.03;88.65
62928;BME280;51070;52.236;-0.892;2023-08-01T06:17:23;99208.35;;;15.03;88.69
62928;BME280;51070;52.236;-0.892;2023-08-01T06:19:49;99209.20;;;15.05;88.51
62928;BME280;51070;52.236;-0.892;2023-08-01T06:22:15;99207.08;;;15.08;88.47
62928;BME280;51070;52.236;-0.892;2023-08-01T06:24:41;99211.38;;;15.11;88.30
62928;BME280;51070;52.236;-0.892;2023-08-01T06:27:06;99211.53;;;15.15;88.17
62928;BME280;51070;52.236;-0.892;2023-08-01T06:29:32;99225.03;;;15.22;88.12
62928;BME280;51070;52.236;-0.892;2023-08-01T06:31:57;99225.67;;;15.28;87.85
62928;BME280;51070;52.236;-0.892;2023-08-01T06:34:22;99224.36;;;15.36;87.50
62928;BME280;51070;52.236;-0.892;2023-08-01T06:36:48;99223.59;;;15.44;86.96
62928;BME280;51070;52.236;-0.892;2023-08-01T06:39:14;99223.65;;;15.54;86.97
62928;BME280;51070;52.236;-0.892;2023-08-01T06:41:39;99218.92;;;15.72;86.34
62928;BME280;51070;52.236;-0.892;2023-08-01T06:44:04;99220.87;;;15.97;85.17
62928;BME280;51070;52.236;-0.892;2023-08-01T06:46:30;99221.14;;;16.39;84.08
62928;BME280;51070;52.236;-0.892;2023-08-01T06:48:56;99221.86;;;17.81;79.96
62928;BME280;51070;52.236;-0.892;2023-08-01T06:51:21;99219.88;;;19.94;73.50
62928;BME280;51070;52.236;-0.892;2023-08-01T06:53:47;99225.34;;;21.25;67.67
62928;BME280;51070;52.236;-0.892;2023-08-01T06:56:12;99223.50;;;23.30;62.72
62928;BME280;51070;52.236;-0.892;2023-08-01T06:58:37;99223.16;;;25.35;58.09
62928;BME280;51070;52.236;-0.892;2023-08-01T07:01:03;99227.00;;;26.79;53.50
62928;BME280;51070;52.236;-0.892;2023-08-01T07:03:28;99229.35;;;28.01;49.61
62928;BME280;51070;52.236;-0.892;2023-08-01T07:05:54;99226.97;;;29.41;45.58
62928;BME280;51070;52.236;-0.892;2023-08-01T07:08:19;99233.81;;;30.33;42.09
62928;BME280;51070;52.236;-0.892;2023-08-01T07:10:46;99239.73;;;31.26;40.79
62928;BME280;51070;52.236;-0.892;2023-08-01T07:13:12;99235.38;;;32.20;39.21
62928;BME280;51070;52.236;-0.892;2023-08-01T07:15:37;99239.14;;;33.05;37.40
62928;BME280;51070;52.236;-0.892;2023-08-01T07:18:03;99237.59;;;32.85;35.70
62928;BME280;51070;52.236;-0.892;2023-08-01T07:20:28;99241.64;;;32.94;35.06
62928;BME280;51070;52.236;-0.892;2023-08-01T07:22:54;99238.82;;;31.77;36.21
62928;BME280;51070;52.236;-0.892;2023-08-01T07:25:19;99247.15;;;30.28;37.00
62928;BME280;51070;52.236;-0.892;2023-08-01T07:27:46;99247.52;;;29.11;37.72
62928;BME280;51070;52.236;-0.892;2023-08-01T07:30:11;99241.17;;;28.99;37.31
62928;BME280;51070;52.236;-0.892;2023-08-01T07:32:37;99238.45;;;29.58;37.20
62928;BME280;51070;52.236;-0.892;2023-08-01T07:35:04;99238.46;;;30.25;36.32
62928;BME280;51070;52.236;-0.892;2023-08-01T07:37:31;99237.20;;;29.80;36.77
62928;BME280;51070;52.236;-0.892;2023-08-01T07:39:56;99242.34;;;28.43;38.21
62928;BME280;51070;52.236;-0.892;2023-08-01T07:42:22;99253.68;;;27.20;39.77
62928;BME280;51070;52.236;-0.892;2023-08-01T07:44:48;99244.98;;;26.27;41.11
62928;BME280;51070;52.236;-0.892;2023-08-01T07:47:13;99243.85;;;25.36;42.47
62928;BME280;51070;52.236;-0.892;2023-08-01T07:49:39;99240.59;;;24.44;44.08
62928;BME280;51070;52.236;-0.892;2023-08-01T07:52:05;99246.31;;;23.66;45.69
62928;BME280;51070;52.236;-0.892;2023-08-01T07:54:30;99247.52;;;23.22;46.91
62928;BME280;51070;52.236;-0.892;2023-08-01T07:56:56;99249.66;;;22.97;47.78
62928;BME280;51070;52.236;-0.892;2023-08-01T07:59:21;99254.25;;;23.05;47.87
62928;BME280;51070;52.236;-0.892;2023-08-01T08:01:46;99259.93;;;23.45;47.56
62928;BME280;51070;52.236;-0.892;2023-08-01T08:04:12;99251.09;;;24.46;46.23
62928;BME280;51070;52.236;-0.892;2023-08-01T08:06:40;99250.94;;;25.92;43.61
62928;BME280;51070;52.236;-0.892;2023-08-01T08:09:05;99256.69;;;27.67;41.23
62928;BME280;51070;52.236;-0.892;2023-08-01T08:11:30;99258.30;;;28.24;39.56
62928;BME280;51070;52.236;-0.892;2023-08-01T08:13:56;99269.70;;;27.90;39.64
62928;BME280;51070;52.236;-0.892;2023-08-01T08:16:21;99272.14;;;27.32;39.95
62928;BME280;51070;52.236;-0.892;2023-08-01T08:18:46;99266.53;;;26.72;40.70
62928;BME280;51070;52.236;-0.892;2023-08-01T08:21:12;99270.38;;;26.64;41.25
62928;BME280;51070;52.236;-0.892;2023-08-01T08:23:38;99269.52;;;28.23;39.15
62928;BME280;51070;52.236;-0.892;2023-08-01T08:26:03;99259.80;;;29.40;37.43
62928;BME280;51070;52.236;-0.892;2023-08-01T08:28:31;99262.99;;;28.70;37.58
62928;BME280;51070;52.236;-0.892;2023-08-01T08:30:58;99268.34;;;29.08;36.90
62928;BME280;51070;52.236;-0.892;2023-08-01T08:33:23;99266.58;;;29.91;35.85
62928;BME280;51070;52.236;-0.892;2023-08-01T08:35:49;99259.09;;;30.18;35.34
62928;BME280;51070;52.236;-0.892;2023-08-01T08:38:16;99268.71;;;31.23;33.69
62928;BME280;51070;52.236;-0.892;2023-08-01T08:41:01;99264.01;;;32.16;32.76
62928;BME280;51070;52.236;-0.892;2023-08-01T08:43:31;99267.89;;;32.29;31.97
62928;BME280;51070;52.236;-0.892;2023-08-01T08:45:57;99271.50;;;32.88;31.36
62928;BME280;51070;52.236;-0.892;2023-08-01T08:48:25;99270.88;;;32.94;31.06
62928;BME280;51070;52.236;-0.892;2023-08-01T08:50:52;99279.14;;;33.27;30.41
62928;BME280;51070;52.236;-0.892;2023-08-01T08:53:19;99275.73;;;31.96;31.89
62928;BME280;51070;52.236;-0.892;2023-08-01T08:55:46;99278.06;;;31.15;32.98
62928;BME280;51070;52.236;-0.892;2023-08-01T08:58:12;99282.23;;;30.36;33.39
62928;BME280;51070;52.236;-0.892;2023-08-01T09:00:38;99284.02;;;29.44;34.01
62928;BME280;51070;52.236;-0.892;2023-08-01T09:03:04;99286.58;;;28.21;35.62
62928;BME280;51070;52.236;-0.892;2023-08-01T09:05:56;99285.39;;;27.24;36.98
62928;BME280;51070;52.236;-0.892;2023-08-01T09:08:19;99290.32;;;26.24;38.73
62928;BME280;51070;52.236;-0.892;2023-08-01T09:10:46;99298.45;;;25.50;39.64
62928;BME280;51070;52.236;-0.892;2023-08-01T09:13:11;99295.21;;;24.95;40.62
62928;BME280;51070;52.236;-0.892;2023-08-01T09:15:37;99304.42;;;24.54;41.42
62928;BME280;51070;52.236;-0.892;2023-08-01T09:18:06;99296.94;;;24.13;42.31
62928;BME280;51070;52.236;-0.892;2023-08-01T09:20:46;99301.20;;;23.89;43.39
62928;BME280;51070;52.236;-0.892;2023-08-01T09:23:12;99305.60;;;23.70;44.20
62928;BME280;51070;52.236;-0.892;2023-08-01T09:25:38;99301.20;;;23.61;44.15
62928;BME280;51070;52.236;-0.892;2023-08-01T09:28:23;99299.94;;;23.66;44.50
62928;BME280;51070;52.236;-0.892;2023-08-01T09:30:53;99305.80;;;23.57;44.63
62928;BME280;51070;52.236;-0.892;2023-08-01T09:33:23;99297.20;;;23.52;44.52
62928;BME280;51070;52.236;-0.892;2023-08-01T09:35:52;99295.52;;;23.50;44.92
62928;BME280;51070;52.236;-0.892;2023-08-01T09:38:17;99301.00;;;23.90;44.84
62928;BME280;51070;52.236;-0.892;2023-08-01T09:40:44;99297.73;;;24.90;43.24
62928;BME280;51070;52.236;-0.892;2023-08-01T09:43:11;99293.08;;;26.70;40.74
62928;BME280;51070;52.236;-0.892;2023-08-01T09:45:36;99300.13;;;27.35;39.85
62928;BME280;51070;52.236;-0.892;2023-08-01T09:48:02;99297.84;;;27.50;38.76
62928;BME280;51070;52.236;-0.892;2023-08-01T09:50:28;99300.34;;;28.03;37.66
62928;BME280;51070;52.236;-0.892;2023-08-01T09:52:53;99299.67;;;27.61;37.84
62928;BME280;51070;52.236;-0.892;2023-08-01T09:55:38;99300.13;;;26.74;38.85
62928;BME280;51070;52.236;-0.892;2023-08-01T09:58:06;99300.00;;;25.68;40.11
62928;BME280;51070;52.236;-0.892;2023-08-01T10:00:32;99298.66;;;24.97;41.35
62928;BME280;51070;52.236;-0.892;2023-08-01T10:02:59;99298.42;;;24.61;42.39
62928;BME280;51070;52.236;-0.892;2023-08-01T10:05:29;99301.55;;;24.62;42.56
62928;BME280;51070;52.236;-0.892;2023-08-01T10:07:59;99307.66;;;24.45;41.90
62928;BME280;51070;52.236;-0.892;2023-08-01T10:10:25;99305.11;;;24.28;41.75
62928;BME280;51070;52.236;-0.892;2023-08-01T10:12:51;99307.98;;;24.42;41.76
62928;BME280;51070;52.236;-0.892;2023-08-01T10:15:17;99313.85;;;25.15;40.58
62928;BME280;51070;52.236;-0.892;2023-08-01T10:17:43;99310.46;;;26.21;39.63
62928;BME280;51070;52.236;-0.892;2023-08-01T10:20:10;99310.72;;;26.40;39.47
62928;BME280;51070;52.236;-0.892;2023-08-01T10:22:37;99298.05;;;26.67;38.65
62928;BME280;51070;52.236;-0.892;2023-08-01T10:25:03;99301.03;;;27.32;37.98
62928;BME280;51070;52.236;-0.892;2023-08-01T10:27:30;99298.30;;;27.36;37.95
62928;BME280;51070;52.236;-0.892;2023-08-01T10:30:00;99304.64;;;27.31;37.41
62928;BME280;51070;52.236;-0.892;2023-08-01T10:32:36;99300.36;;;27.07;37.31
62928;BME280;51070;52.236;-0.892;2023-08-01T10:35:02;99300.20;;;26.76;37.31
62928;BME280;51070;52.236;-0.892;2023-08-01T10:37:39;99304.68;;;26.20;37.69
62928;BME280;51070;52.236;-0.892;2023-08-01T10:40:06;99307.73;;;25.59;38.57
62928;BME280;51070;52.236;-0.892;2023-08-01T10:42:45;99315.66;;;25.07;39.20
62928;BME280;51070;52.236;-0.892;2023-08-01T10:45:23;99311.61;;;24.59;39.93
62928;BME280;51070;52.236;-0.892;2023-08-01T10:47:50;99312.97;;;24.26;40.96
62928;BME280;51070;52.236;-0.892;2023-08-01T10:50:16;99319.89;;;24.05;41.31
62928;BME280;51070;52.236;-0.892;2023-08-01T10:52:43;99316.88;;;23.78;41.67
62928;BME280;51070;52.236;-0.892;2023-08-01T10:55:09;99323.42;;;23.40;42.36
62928;BME280;51070;52.236;-0.892;2023-08-01T10:57:40;99317.46;;;23.01;42.90
62928;BME280;51070;52.236;-0.892;2023-08-01T11:00:15;99319.30;;;22.64;43.85
62928;BME280;51070;52.236;-0.892;2023-08-01T11:02:49;99318.00;;;22.29;44.71
62928;BME280;51070;52.236;-0.892;2023-08-01T11:05:15;99326.05;;;21.97;45.36
62928;BME280;51070;52.236;-0.892;2023-08-01T11:07:40;99322.31;;;21.73;45.79
62928;BME280;51070;52.236;-0.892;2023-08-01T11:10:12;99323.74;;;21.57;46.24
62928;BME280;51070;52.236;-0.892;2023-08-01T11:12:40;99319.76;;;21.50;46.35
62928;BME280;51070;52.236;-0.892;2023-08-01T11:15:11;99319.80;;;21.59;46.39
62928;BME280;51070;52.236;-0.892;2023-08-01T11:17:41;99326.14;;;21.79;46.19
62928;BME280;51070;52.236;-0.892;2023-08-01T11:20:09;99326.89;;;21.98;45.81
62928;BME280;51070;52.236;-0.892;2023-08-01T11:22:36;99324.76;;;22.04;45.82
62928;BME280;51070;52.236;-0.892;2023-08-01T11:25:02;99329.07;;;22.06;45.86
62928;BME280;51070;52.236;-0.892;2023-08-01T11:27:28;99336.99;;;21.96;45.99
62928;BME280;51070;52.236;-0.892;2023-08-01T11:29:54;99329.14;;;21.79;46.44
62928;BME280;51070;52.236;-0.892;2023-08-01T11:32:20;99331.10;;;21.63;46.59
62928;BME280;51070;52.236;-0.892;2023-08-01T11:34:46;99331.66;;;21.47;46.89
62928;BME280;51070;52.236;-0.892;2023-08-01T11:37:18;99332.91;;;21.36;47.31
62928;BME280;51070;52.236;-0.892;2023-08-01T11:39:45;99332.54;;;21.21;47.76
62928;BME280;51070;52.236;-0.892;2023-08-01T11:42:17;99337.39;;;21.12;48.12
62928;BME280;51070;52.236;-0.892;2023-08-01T11:44:44;99335.19;;;20.98;48.52
62928;BME280;51070;52.236;-0.892;2023-08-01T11:47:17;99334.56;;;20.85;48.64
62928;BME280;51070;52.236;-0.892;2023-08-01T11:49:47;99336.48;;;20.74;48.88
62928;BME280;51070;52.236;-0.892;2023-08-01T11:52:26;99334.06;;;20.67;49.31
62928;BME280;51070;52.236;-0.892;2023-08-01T11:54:52;99335.23;;;20.69;49.61
62928;BME280;51070;52.236;-0.892;2023-08-01T11:57:20;99339.99;;;20.73;49.57
62928;BME280;51070;52.236;-0.892;2023-08-01T11:59:51;99340.81;;;20.70;49.23
62928;BME280;51070;52.236;-0.892;2023-08-01T12:02:29;99333.21;;;20.66;49.21
62928;BME280;51070;52.236;-0.892;2023-08-01T12:04:55;99333.42;;;20.65;49.40
62928;BME280;51070;52.236;-0.892;2023-08-01T12:07:21;99332.20;;;20.65;49.47
62928;BME280;51070;52.236;-0.892;2023-08-01T12:09:57;99331.92;;;20.62;49.63
62928;BME280;51070;52.236;-0.892;2023-08-01T12:12:23;99336.45;;;20.58;49.70
62928;BME280;51070;52.236;-0.892;2023-08-01T12:14:49;99338.03;;;20.58;49.81
62928;BME280;51070;52.236;-0.892;2023-08-01T12:17:14;99334.26;;;20.61;49.97
62928;BME280;51070;52.236;-0.892;2023-08-01T12:19:39;99336.65;;;20.62;50.00
62928;BME280;51070;52.236;-0.892;2023-08-01T12:22:05;99335.17;;;20.65;50.10
62928;BME280;51070;52.236;-0.892;2023-08-01T12:24:30;99334.61;;;20.72;50.33
62928;BME280;51070;52.236;-0.892;2023-08-01T12:26:57;99332.88;;;20.82;50.19
62928;BME280;51070;52.236;-0.892;2023-08-01T12:29:22;99333.88;;;20.95;49.91
62928;BME280;51070;52.236;-0.892;2023-08-01T12:31:48;99332.02;;;21.09;49.60
62928;BME280;51070;52.236;-0.892;2023-08-01T12:34:14;99336.75;;;21.21;49.32
62928;BME280;51070;52.236;-0.892;2023-08-01T12:36:39;99333.89;;;21.33;49.12
62928;BME280;51070;52.236;-0.892;2023-08-01T12:39:04;99331.73;;;21.45;48.94
62928;BME280;51070;52.236;-0.892;2023-08-01T12:41:35;99332.40;;;21.61;48.00
62928;BME280;51070;52.236;-0.892;2023-08-01T12:44:01;99331.70;;;21.81;47.29
62928;BME280;51070;52.236;-0.892;2023-08-01T12:46:26;99331.10;;;22.03;46.63